Haleyville, Alabama
Current Conditions -  °F | °C
As of 6:23 PM on Wednesday 22 Oct 2014 (Local Time) from K1M4 Reporting Station
Haze Haze  
Wind Chill: 54°   Ceiling: Unl
Heat Index: 54°   Visibility: 1.5mi
Dew Point: 46°   Wind: 0mph
Humidity: 77%   Direction: NA
Pressure: 30.17"   Gusts: NA
Location:  34.23°N, 87.62°W
Report Text: K1M4 222323Z AUTO 00000KT 1 1/2SM HZ CLR 12/08 A3017 RMK AO2
Loading
Personal Weather Stations






























Interactive Weather Map
Tropical Storm Tracking
New forecast layout! Learn more

10-Day Weather Forecast

Advertisements
Track Severe Weather on mobile